Dati Storici Stazione MacerataMeteo
 
Dati Giornalieri Settembre 22, 2018 UnitÓ:  Metrica    Inglese   Entrambe
« Precedente Giorno
Successivo Giorno »
Dati Giornalieri Dati Settimanali Dati Mensili Dati Annuali Personalizza
  Attuale: Massima: Minima: Media:
Temperatura: -0.7 °C -17.8 °C -5.4 °C -4.2 °C
Punto di Rugiada: -8.9 °C -17.8 °C -9.8 °C -8.2 °C
UmiditÓ: 41% Humidity% 38% 64%
Vento-VelocitÓ: 5.1km/h 0km/h 0km/h 16.4km/h
Vento-Raffica: 23.3km/h 0km/h - -
Vento-DirezioneNE - - SO
Pressione: 34384.8 hPa 0 hPa 34347.6 hPa -
Precipitazioni: 0 mm      
Historical Graphs
 
 
Dati Riepilogativi per Settembre 22, 2018
Ora Temperatura Punto di Rugiada Pressione Vento-Direzione Vento-VelocitÓ Vento-Raffica UmiditÓ IntensitÓ Pioggia Caduta (Oraria) Radiazione Solare Condizioni
-17.8 °C -17.8 °C 0 hPa Calm     Humidity% 0 mm SolarRadiationWatts/m^2 W/m2 Conditions
00:00 -5.2 °C -7.7 °C 34371.3 hPa SSW 20.8 km/h 33.6 km/h 75% 0 mm 0.00 W/m2
00:08 -5.2 °C -7.8 °C 34371.3 hPa SSW 25.9 km/h 28.5 km/h 75% 0 mm 0.00 W/m2
00:18 -5.2 °C -7.8 °C 34371.3 hPa SSW 20.8 km/h 28.5 km/h 75% 0 mm 0.00 W/m2
00:28 -5.2 °C -7.8 °C 34371.3 hPa SSW 15.6 km/h 28.5 km/h 75% 0 mm 0.00 W/m2
00:30 -5.2 °C -7.8 °C 34361.1 hPa SSW 20.8 km/h 28.5 km/h 75% 0 mm 0.00 W/m2
00:38 -5.2 °C -7.8 °C 34371.3 hPa South 18.2 km/h 31.1 km/h 75% 0 mm 0.00 W/m2
00:48 -5.1 °C -7.8 °C 34361.1 hPa SW 15.6 km/h 31.1 km/h 74% 0 mm 0.00 W/m2
00:59 -5.1 °C -7.8 °C 34361.1 hPa SSW 15.6 km/h 33.6 km/h 74% 0 mm 0.00 W/m2
01:00 -5.1 °C -7.8 °C 34361.1 hPa SSW 18.2 km/h 33.6 km/h 74% 0 mm 0.00 W/m2
01:08 -5.1 °C -7.8 °C 34371.3 hPa SSW 23.3 km/h 28.5 km/h 74% 0 mm 0.00 W/m2
01:19 -4.9 °C -7.8 °C 34361.1 hPa SSW 20.8 km/h 28.5 km/h 72% 0 mm 0.00 W/m2
01:29 -4.8 °C -7.8 °C 34361.1 hPa SSW 23.3 km/h 33.6 km/h 72% 0 mm 0.00 W/m2
01:30 -4.8 °C -7.9 °C 34361.1 hPa SSW 18.2 km/h 33.6 km/h 71% 0 mm 0.00 W/m2
01:39 -4.8 °C -7.8 °C 34361.1 hPa SSW 15.6 km/h 31.1 km/h 72% 0 mm 0.00 W/m2
01:49 -4.8 °C -7.8 °C 34361.1 hPa SW 20.8 km/h 33.6 km/h 72% 0 mm 0.00 W/m2
01:59 -4.8 °C -7.8 °C 34361.1 hPa SW 18.2 km/h 38.8 km/h 71% 0 mm 0.00 W/m2
02:00 -4.7 °C -7.8 °C 34361.1 hPa SW 28.5 km/h 38.8 km/h 71% 0 mm 0.00 W/m2
02:09 -4.7 °C -7.8 °C 34347.6 hPa SSW 25.9 km/h 36.2 km/h 71% 0 mm 0.00 W/m2
02:19 -4.7 °C -7.8 °C 34347.6 hPa SSW 23.3 km/h 38.8 km/h 71% 0 mm 0.00 W/m2
02:29 -4.7 °C -7.9 °C 34347.6 hPa SW 18.2 km/h 38.8 km/h 70% 0 mm 0.00 W/m2
02:30 -4.7 °C -7.9 °C 34347.6 hPa SSW 28.5 km/h 38.8 km/h 70% 0 mm 0.00 W/m2
02:39 -4.7 °C -7.9 °C 34347.6 hPa SW 28.5 km/h 38.8 km/h 70% 0 mm 0.00 W/m2
02:49 -4.8 °C -7.9 °C 34347.6 hPa SW 18.2 km/h 38.8 km/h 71% 0 mm 0.00 W/m2
02:59 -4.8 °C -7.9 °C 34347.6 hPa SSW 18.2 km/h 38.8 km/h 71% 0 mm 0.00 W/m2
03:00 -4.8 °C -7.9 °C 34347.6 hPa SW 31.1 km/h 38.8 km/h 71% 0 mm 0.00 W/m2
03:09 -4.8 °C -7.9 °C 34347.6 hPa SSW 18.2 km/h 44.1 km/h 71% 0 mm 0.00 W/m2
03:19 -4.9 °C -7.9 °C 34347.6 hPa SSW 33.6 km/h 44.1 km/h 72% 0 mm 0.00 W/m2
03:29 -5 °C -7.9 °C 34347.6 hPa SW 23.3 km/h 46.7 km/h 72% 0 mm 0.00 W/m2
03:30 -5 °C -7.9 °C 34347.6 hPa SW 23.3 km/h 46.7 km/h 72% 0 mm 0.00 W/m2
03:39 -4.9 °C -7.9 °C 34347.6 hPa SSW 20.8 km/h 44.1 km/h 72% 0 mm 0.00 W/m2
03:49 -5.1 °C -8.1 °C 34347.6 hPa SW 18.2 km/h 44.1 km/h 72% 0 mm 0.00 W/m2
03:59 -5.2 °C -8 °C 34347.6 hPa WSW 20.8 km/h 44.1 km/h 73% 0 mm 0.00 W/m2
04:00 -5.2 °C -8.1 °C 34347.6 hPa SW 15.6 km/h 44.1 km/h 73% 0 mm 0.00 W/m2
04:09 -5.2 °C -8.1 °C 34347.6 hPa SW 18.2 km/h 31.1 km/h 73% 0 mm 0.00 W/m2
04:19 -5.2 °C -8.1 °C 34347.6 hPa SW 28.5 km/h 36.2 km/h 72% 0 mm 0.00 W/m2
04:29 -5.1 °C -8.1 °C 34347.6 hPa WSW 18.2 km/h 41.4 km/h 72% 0 mm 0.00 W/m2
04:30 -5.2 °C -8.1 °C 34347.6 hPa WSW 18.2 km/h 41.4 km/h 72% 0 mm 0.00 W/m2
04:39 -5.2 °C -8.1 °C 34347.6 hPa SW 18.2 km/h 36.2 km/h 72% 0 mm 0.00 W/m2
04:49 -5.2 °C -8.1 °C 34347.6 hPa SW 23.3 km/h 41.4 km/h 73% 0 mm 0.00 W/m2
05:00 -5.3 °C -8.1 °C 34347.6 hPa SSW 31.1 km/h 41.4 km/h 73% 0 mm 0.00 W/m2
05:09 -5.3 °C -8.1 °C 34361.1 hPa SW 25.9 km/h 38.8 km/h 73% 0 mm 0.00 W/m2
05:19 -5.2 °C -8.1 °C 34361.1 hPa SW 28.5 km/h 38.8 km/h 72% 0 mm 0.00 W/m2
05:30 -5.2 °C -8.1 °C 34361.1 hPa SW 25.9 km/h 38.8 km/h 72% 0 mm 0.00 W/m2
05:39 -5.2 °C -8.1 °C 34361.1 hPa SSW 20.8 km/h 41.4 km/h 72% 0 mm 0.00 W/m2
05:49 -5.2 °C -8.2 °C 34361.1 hPa WSW 31.1 km/h 46.7 km/h 71% 0 mm 0.00 W/m2
06:00 -5.1 °C -8.1 °C 34361.1 hPa SW 23.3 km/h 46.7 km/h 71% 0 mm 0.00 W/m2
06:09 -5.1 °C -8.3 °C 34371.3 hPa WSW 28.5 km/h 38.8 km/h 70% 0 mm 0.00 W/m2
06:19 -5.2 °C -8.2 °C 34361.1 hPa SW 18.2 km/h 38.8 km/h 71% 0 mm 0.00 W/m2
06:30 -5.2 °C -8.3 °C 34361.1 hPa SW 28.5 km/h 38.8 km/h 71% 0 mm 0.00 W/m2
06:39 -5.3 °C -8.2 °C 34361.1 hPa WSW 20.8 km/h 38.8 km/h 72% 0 mm 0.00 W/m2
06:49 -5.3 °C -8.3 °C 34361.1 hPa SSW 12.9 km/h 38.8 km/h 72% 0 mm 5.00 W/m2
07:00 -5.4 °C -8.3 °C 34371.3 hPa SW 20.8 km/h 38.8 km/h 72% 0 mm 9.00 W/m2
07:09 -5.3 °C -8.3 °C 34371.3 hPa WSW 20.8 km/h 44.1 km/h 72% 0 mm 19.00 W/m2
07:19 -5.2 °C -8.3 °C 34361.1 hPa SW 25.9 km/h 44.1 km/h 71% 0 mm 28.00 W/m2
07:30 -5.2 °C -8.3 °C 34371.3 hPa WSW 20.8 km/h 44.1 km/h 71% 0 mm 37.00 W/m2
07:39 -5.3 °C -8.3 °C 34371.3 hPa WSW 20.8 km/h 33.6 km/h 71% 0 mm 79.00 W/m2
07:49 -5.3 °C -8.3 °C 34371.3 hPa SW 23.3 km/h 33.6 km/h 72% 0 mm 95.00 W/m2
08:00 -4.9 °C -8.3 °C 34371.3 hPa WSW 31.1 km/h 38.8 km/h 68% 0 mm 120.00 W/m2
08:09 -4.6 °C -8.4 °C 34371.3 hPa WSW 20.8 km/h 41.4 km/h 66% 0 mm 97.00 W/m2
08:19 -4.7 °C -8.3 °C 34384.8 hPa SW 7.7 km/h 41.4 km/h 67% 0 mm 123.00 W/m2
08:30 -4.8 °C -8.2 °C 34384.8 hPa SW 20.8 km/h 41.4 km/h 69% 0 mm 139.00 W/m2
08:39 -4.6 °C -8.2 °C 34395 hPa SSW 20.8 km/h 31.1 km/h 67% 0 mm 127.00 W/m2
08:49 -4.5 °C -8.2 °C 34395 hPa SW 25.9 km/h 33.6 km/h 66% 0 mm 209.00 W/m2
09:00 -4.3 °C -7.9 °C 34395 hPa SSW 12.9 km/h 33.6 km/h 67% 0 mm 274.00 W/m2
09:09 -4.2 °C -8.1 °C 34395 hPa SW 18.2 km/h 25.9 km/h 65% 0 mm 306.00 W/m2
09:19 -4.2 °C -8.1 °C 34405.1 hPa SSW 18.2 km/h 25.9 km/h 65% 0 mm 341.00 W/m2
09:30 -4.1 °C -8 °C 34395 hPa SW 20.8 km/h 25.9 km/h 65% 0 mm 339.00 W/m2
09:39 -4 °C -7.9 °C 34405.1 hPa SSW 12.9 km/h 20.8 km/h 65% 0 mm 387.00 W/m2
09:49 -3.6 °C -7.8 °C 34405.1 hPa Calm   20.8 km/h 63% 0 mm 417.00 W/m2
10:00 -3.7 °C -8.1 °C 34395 hPa SSW 12.9 km/h 20.8 km/h 61% 0 mm 450.00 W/m2
10:10 -3.5 °C -8 °C 34395 hPa South 7.7 km/h 15.6 km/h 61% 0 mm 480.00 W/m2
10:20 -3.4 °C -8.1 °C 34405.1 hPa SSE 5.1 km/h 18.2 km/h 60% 0 mm 476.00 W/m2
10:30 -3.2 °C -7.9 °C 34405.1 hPa SSE 5.1 km/h 18.2 km/h 60% 0 mm 483.00 W/m2
10:39 -3.3 °C -7.6 °C 34405.1 hPa SSE 2.6 km/h 18.2 km/h 62% 0 mm 485.00 W/m2
10:50 -2.7 °C -7.5 °C 34405.1 hPa Calm   18.2 km/h 59% 0 mm 557.00 W/m2
11:00 -3.2 °C -8.1 °C 34418.7 hPa SSW 5.1 km/h 18.2 km/h 58% 0 mm 422.00 W/m2
11:10 -3 °C -7.8 °C 34405.1 hPa East 7.7 km/h 10.3 km/h 59% 0 mm 383.00 W/m2
11:20 -3.2 °C -7.9 °C 34418.7 hPa Calm   18.2 km/h 59% 0 mm 422.00 W/m2
11:30 -2.8 °C -7.9 °C 34418.7 hPa ESE 7.7 km/h 20.8 km/h 57% 0 mm 490.00 W/m2
11:40 -2.8 °C -7.8 °C 34418.7 hPa ESE 10.3 km/h 18.2 km/h 58% 0 mm 550.00 W/m2
11:50 -2.7 °C -7.8 °C 34418.7 hPa South 2.6 km/h 20.8 km/h 57% 0 mm 596.00 W/m2
12:00 -2.2 °C -7.8 °C 34405.1 hPa Calm   20.8 km/h 54% 0 mm 650.00 W/m2
12:10 -2.3 °C -7.9 °C 34405.1 hPa SSE 10.3 km/h 25.9 km/h 54% 0 mm 663.00 W/m2
12:20 -2.1 °C -7.7 °C 34405.1 hPa SSE 7.7 km/h 25.9 km/h 54% 0 mm 675.00 W/m2
12:30 -2.2 °C -7.8 °C 34405.1 hPa Calm   25.9 km/h 54% 0 mm 652.00 W/m2
12:40 -1.9 °C -7.6 °C 34395 hPa South 5.1 km/h 18.2 km/h 54% 0 mm 710.00 W/m2
12:50 -1.8 °C -7.6 °C 34395 hPa NW 7.7 km/h 20.8 km/h 53% 0 mm 710.00 W/m2
13:00 -1.3 °C -8.1 °C 34395 hPa WSW 7.7 km/h 20.8 km/h 48% 0 mm 684.00 W/m2
13:10 -1.6 °C -9.1 °C 34395 hPa West 7.7 km/h 18.2 km/h 44% 0 mm 715.00 W/m2
13:20 -1.4 °C -9.3 °C 34395 hPa WNW 5.1 km/h 23.3 km/h 42% 0 mm 666.00 W/m2
13:30 -1.6 °C -9.7 °C 34395 hPa WNW 10.3 km/h 25.9 km/h 41% 0 mm 705.00 W/m2
13:40 -1.5 °C -9.6 °C 34395 hPa Calm   18.2 km/h 41% 0 mm 696.00 W/m2
13:50 -1.5 °C -9.6 °C 34395 hPa West 7.7 km/h 28.5 km/h 41% 0 mm 680.00 W/m2
14:00 -1.1 °C -9.3 °C 34395 hPa SSW 18.2 km/h 28.5 km/h 41% 0 mm 675.00 W/m2
14:10 -1.3 °C -9.4 °C 34395 hPa WNW 7.7 km/h 23.3 km/h 41% 0 mm 654.00 W/m2
14:20 -0.9 °C -9.6 °C 34395 hPa SW 7.7 km/h 23.3 km/h 39% 0 mm 650.00 W/m2
14:30 -1 °C -9.8 °C 34384.8 hPa West 7.7 km/h 23.3 km/h 38% 0 mm 529.00 W/m2
14:40 -1.3 °C -8.9 °C 34384.8 hPa NW 10.3 km/h 18.2 km/h 44% 0 mm 594.00 W/m2
14:50 -1.2 °C -9.3 °C 34384.8 hPa Calm   23.3 km/h 41% 0 mm 633.00 W/m2
15:00 -0.7 °C -8.9 °C 34384.8 hPa NE 5.1 km/h 23.3 km/h 41% 0 mm 568.00 W/m2
MacerataMeteo
Maceratameteo.it Weather Underground - 2 mb